Terminal Aerodrome Forecast
Issued by NWS Pittsburgh, PA

Current Version | Previous Version | Graphics & Text | Print | Product List | Glossary On
Versions: 1 2 3 4 5 6 7 8 9 10 11 12 13 14 15 16 17 18 19 20 21 22 23 24 25 26
000
FTUS41 KPBZ 240200 AAA
TAFPIT
TAF AMD
KPIT 240256Z 2403/2506 10006KT P6SM OVC100
     FM240500 12008KT 3SM -RA OVC010
     FM241300 14010KT 6SM -RA OVC008
     FM242300 19012KT P6SM OVC010
     FM250300 22020G40KT P6SM BKN035=

USA.gov is the U.S. government's official web portal to all federal, state and local government web resources and services.